Time;durP1;ratioP1;P1;durP2;ratioP2;P2;SDS_P1;SDS_P2;PMS_P1;PMS_P2;Temp;Humidity;BMP_temperature;BMP_pressure;BME280_temperature;BME280_humidity;BME280_pressure;Samples;Min_cycle;Max_cycle;Signal;HPM_P1;HPM_P2
2022/02/23 00:00:01;;;;;;;1.50;0.60;;;;;;;8.55;83.67;99149.84;5019705;27;103227;-69
2022/02/23 00:02:31;;;;;;;1.43;0.73;;;;;;;8.59;83.57;99159.25;5012319;27;102699;-69
2022/02/23 00:05:00;;;;;;;1.60;0.70;;;;;;;8.60;83.72;99145.16;5017554;27;102811;-69
2022/02/23 00:07:28;;;;;;;0.80;0.70;;;;;;;8.66;83.47;99154.47;5017384;27;103327;-69
2022/02/23 00:09:57;;;;;;;1.50;0.77;;;;;;;8.64;83.30;99156.38;5010097;27;103206;-69
2022/02/23 00:12:25;;;;;;;1.83;0.67;;;;;;;8.69;83.16;99159.56;5013063;27;102864;-69
2022/02/23 00:14:54;;;;;;;2.37;0.77;;;;;;;8.66;83.29;99160.59;5020022;27;102705;-69
2022/02/23 00:17:25;;;;;;;1.17;0.70;;;;;;;8.64;83.29;99167.75;5010336;27;103398;-69
2022/02/23 00:19:53;;;;;;;1.87;0.70;;;;;;;8.66;83.49;99165.88;5012868;27;103239;-69
2022/02/23 00:22:21;;;;;;;2.60;0.70;;;;;;;8.62;83.68;99169.59;5012495;27;102665;-69
2022/02/23 00:24:52;;;;;;;1.33;0.60;;;;;;;8.69;83.32;99165.69;5019652;27;102636;-68
2022/02/23 00:27:21;;;;;;;0.70;0.70;;;;;;;8.74;83.39;99173.31;5011550;27;104114;-68
2022/02/23 00:29:49;;;;;;;1.07;0.50;;;;;;;8.72;83.61;99176.06;5017457;27;103258;-68
2022/02/23 00:32:17;;;;;;;1.30;0.73;;;;;;;8.74;83.58;99176.81;5012825;27;102630;-69
2022/02/23 00:34:47;;;;;;;1.00;0.70;;;;;;;8.67;84.26;99182.53;5015227;27;104030;-68
2022/02/23 00:37:16;;;;;;;1.10;0.63;;;;;;;8.69;84.06;99181.50;5013284;27;103342;-69
2022/02/23 00:39:44;;;;;;;0.90;0.50;;;;;;;8.79;83.87;99186.22;5013139;27;103340;-68
2022/02/23 00:42:12;;;;;;;1.07;0.60;;;;;;;8.74;84.06;99194.41;5011059;27;102759;-68
2022/02/23 00:44:44;;;;;;;1.57;0.60;;;;;;;8.71;84.38;99200.69;5014112;27;104066;-68
2022/02/23 00:47:12;;;;;;;1.57;0.60;;;;;;;8.64;84.56;99201.16;5011083;27;103528;-69
2022/02/23 00:49:40;;;;;;;0.87;0.60;;;;;;;8.72;84.72;99202.41;5001325;27;104362;-69
2022/02/23 00:52:08;;;;;;;1.00;0.60;;;;;;;8.74;84.76;99208.44;5015141;27;102679;-69
2022/02/23 00:54:37;;;;;;;0.83;0.50;;;;;;;8.71;85.15;99213.88;5016528;27;103966;-69
2022/02/23 00:57:05;;;;;;;1.67;0.57;;;;;;;8.67;86.18;99209.69;5016689;27;104778;-68
2022/02/23 00:59:33;;;;;;;1.37;0.57;;;;;;;8.71;85.81;99203.34;5013344;27;103182;-69
2022/02/23 01:02:04;;;;;;;0.73;0.70;;;;;;;8.63;86.60;99202.94;5018177;27;102726;-69
2022/02/23 01:04:32;;;;;;;1.43;0.60;;;;;;;8.66;86.67;99208.03;5016513;27;102678;-69
2022/02/23 01:07:00;;;;;;;2.20;0.80;;;;;;;8.73;86.65;99204.09;5013322;27;103181;-69
2022/02/23 01:09:28;;;;;;;0.90;0.70;;;;;;;8.73;86.94;99209.34;5014722;27;103186;-69
2022/02/23 01:11:56;;;;;;;0.77;0.60;;;;;;;8.80;86.72;99204.59;5010137;27;102690;-69
2022/02/23 01:14:24;;;;;;;0.77;0.50;;;;;;;8.83;86.90;99219.38;5011744;27;104602;-69
2022/02/23 01:16:53;;;;;;;1.17;0.57;;;;;;;8.89;86.74;99208.50;5012605;27;103825;-69
2022/02/23 01:19:25;;;;;;;1.07;0.70;;;;;;;8.91;86.40;99218.00;5014759;27;102974;-69
2022/02/23 01:21:53;;;;;;;1.47;0.70;;;;;;;8.97;86.25;99216.81;5016686;27;102693;-69
2022/02/23 01:24:21;;;;;;;0.60;0.50;;;;;;;8.95;86.99;99223.97;5013128;27;102799;-69
2022/02/23 01:26:49;;;;;;;0.80;0.80;;;;;;;8.95;87.02;99224.81;5015638;27;104121;-69
2022/02/23 01:29:16;;;;;;;1.40;0.80;;;;;;;8.93;87.02;99225.81;5009735;27;104139;-68
2022/02/23 01:31:48;;;;;;;2.40;0.80;;;;;;;8.98;87.11;99240.41;5007058;27;102711;-69
2022/02/23 01:34:16;;;;;;;1.30;0.77;;;;;;;9.00;87.28;99250.88;5009832;27;102716;-69
2022/02/23 01:36:45;;;;;;;2.60;0.80;;;;;;;8.86;88.45;99299.13;5012560;27;104832;-69
2022/02/23 01:39:13;;;;;;;2.37;0.77;;;;;;;8.26;86.12;99341.91;5010961;27;103241;-68
2022/02/23 01:41:41;;;;;;;4.00;1.10;;;;;;;6.99;87.64;99351.81;5014283;27;103047;-69
2022/02/23 01:44:09;;;;;;;2.97;1.10;;;;;;;6.64;88.83;99365.78;5012262;27;103744;-69
2022/02/23 01:46:38;;;;;;;3.13;1.00;;;;;;;6.25;91.74;99361.41;5010631;27;104227;-70
2022/02/23 01:49:09;;;;;;;3.30;0.90;;;;;;;6.14;93.48;99355.78;5009263;27;104291;-67
2022/02/23 01:51:37;;;;;;;3.47;1.20;;;;;;;6.06;93.10;99365.75;5010779;27;102655;-70
2022/02/23 01:54:09;;;;;;;6.50;1.07;;;;;;;6.01;93.07;99375.56;5016655;27;104468;-66
2022/02/23 01:56:37;;;;;;;3.37;1.10;;;;;;;6.14;93.41;99376.78;5011574;27;104200;-66
2022/02/23 01:59:05;;;;;;;4.83;1.30;;;;;;;5.83;93.75;99377.22;5010827;27;103177;-70
2022/02/23 02:01:34;;;;;;;6.20;1.20;;;;;;;5.73;94.31;99390.75;5009073;27;102774;-66
2022/02/23 02:04:05;;;;;;;4.97;1.27;;;;;;;5.79;93.53;99403.59;5011732;27;103028;-67
2022/02/23 02:06:33;;;;;;;3.23;1.20;;;;;;;5.75;93.88;99404.66;5011653;27;104443;-67
2022/02/23 02:09:01;;;;;;;4.10;1.07;;;;;;;5.99;94.79;99398.41;5013626;27;103175;-67
2022/02/23 02:11:30;;;;;;;2.23;0.90;;;;;;;6.34;94.25;99400.34;5009490;27;103097;-67
2022/02/23 02:13:58;;;;;;;3.40;0.87;;;;;;;6.43;93.75;99405.19;5012392;27;103871;-66
2022/02/23 02:16:26;;;;;;;5.43;1.00;;;;;;;6.18;94.19;99409.81;5009367;27;104123;-66
2022/02/23 02:18:54;;;;;;;3.40;1.20;;;;;;;6.34;93.54;99418.72;5011799;27;103198;-69
2022/02/23 02:21:29;;;;;;;5.97;1.30;;;;;;;6.21;93.98;99409.69;5009000;27;102651;-70
2022/02/23 02:23:57;;;;;;;6.13;1.50;;;;;;;6.39;94.60;99413.28;5012148;27;102838;-70
2022/02/23 02:26:25;;;;;;;5.93;0.93;;;;;;;6.45;93.49;99420.03;5011012;27;103835;-69
2022/02/23 02:28:53;;;;;;;3.43;1.00;;;;;;;6.36;94.89;99416.03;5007796;27;104229;-66
2022/02/23 02:31:20;;;;;;;2.13;0.80;;;;;;;6.37;94.85;99431.69;5018554;27;102715;-70
2022/02/23 02:33:48;;;;;;;5.83;1.27;;;;;;;6.53;93.58;99426.66;5011662;27;103912;-70
2022/02/23 02:36:18;;;;;;;5.33;0.97;;;;;;;6.57;93.49;99422.13;5010956;27;104177;-70
2022/02/23 02:38:48;;;;;;;3.73;1.00;;;;;;;6.59;92.64;99426.38;5012341;27;104156;-70
2022/02/23 02:41:16;;;;;;;3.37;1.00;;;;;;;6.61;92.10;99436.78;5017085;27;102608;-70
2022/02/23 02:43:44;;;;;;;3.90;1.23;;;;;;;6.53;92.22;99431.91;5018719;27;102725;-70
2022/02/23 02:46:12;;;;;;;6.27;1.07;;;;;;;6.56;93.01;99442.25;5019721;27;103453;-70
2022/02/23 02:48:40;;;;;;;2.47;1.13;;;;;;;6.58;92.29;99444.81;5019987;27;103296;-70
2022/02/23 02:51:08;;;;;;;2.83;0.90;;;;;;;6.68;91.49;99451.38;5016614;27;102903;-70
2022/02/23 02:53:36;;;;;;;3.77;1.07;;;;;;;6.63;92.31;99455.94;5017045;27;103772;-70
2022/02/23 02:56:06;;;;;;;3.40;1.27;;;;;;;6.69;92.45;99466.19;5010641;27;103861;-70
2022/02/23 02:58:34;;;;;;;4.40;1.40;;;;;;;6.57;92.41;99469.38;5011980;27;103257;-70
2022/02/23 03:01:02;;;;;;;4.53;0.97;;;;;;;6.66;93.36;99471.56;5007318;27;102649;-70
2022/02/23 03:03:30;;;;;;;2.83;1.03;;;;;;;6.61;93.10;99466.53;5011293;27;104417;-70
2022/02/23 03:05:58;;;;;;;5.73;1.03;;;;;;;6.57;93.63;99470.22;5007789;27;104595;-70
2022/02/23 03:08:27;;;;;;;5.20;1.20;;;;;;;6.62;93.63;99478.75;5012678;27;104227;-66
2022/02/23 03:10:55;;;;;;;4.37;1.00;;;;;;;6.53;94.19;99480.91;5012220;27;102817;-70
2022/02/23 03:13:24;;;;;;;6.10;1.40;;;;;;;6.54;93.89;99485.25;5015443;27;103401;-70
2022/02/23 03:15:52;;;;;;;5.97;1.33;;;;;;;6.55;93.50;99471.19;5012460;27;103979;-66
2022/02/23 03:18:20;;;;;;;4.43;1.10;;;;;;;6.57;93.71;99474.63;5013149;27;103440;-66
2022/02/23 03:20:48;;;;;;;3.47;1.13;;;;;;;6.72;93.38;99481.81;5013504;27;102661;-70
2022/02/23 03:23:17;;;;;;;4.87;1.47;;;;;;;6.76;93.00;99492.13;5018305;27;103858;-70
2022/02/23 03:25:45;;;;;;;7.30;1.50;;;;;;;6.69;93.46;99497.69;5015047;27;104245;-70
2022/02/23 03:28:13;;;;;;;2.70;1.40;;;;;;;6.62;94.23;99497.13;5013909;27;103186;-70
2022/02/23 03:30:43;;;;;;;4.40;1.10;;;;;;;6.70;94.11;99497.66;5013021;27;102736;-70
2022/02/23 03:33:11;;;;;;;3.87;1.10;;;;;;;6.57;94.27;99499.09;5013437;27;104276;-70
2022/02/23 03:35:40;;;;;;;6.47;1.70;;;;;;;6.35;94.74;99506.19;5010138;27;103954;-69
2022/02/23 03:38:09;;;;;;;2.87;1.00;;;;;;;6.39;95.19;99513.88;5017932;27;104254;-69
2022/02/23 03:40:38;;;;;;;3.50;1.40;;;;;;;6.31;95.44;99521.22;5012259;27;102691;-70
2022/02/23 03:43:07;;;;;;;4.63;1.47;;;;;;;6.27;94.54;99519.63;5014356;27;103851;-70
2022/02/23 03:45:37;;;;;;;5.10;1.70;;;;;;;6.18;95.12;99527.88;5014373;27;103297;-70
2022/02/23 03:48:07;;;;;;;4.30;1.20;;;;;;;6.29;94.85;99523.03;5008348;27;103275;-69
2022/02/23 03:50:35;;;;;;;5.63;1.97;;;;;;;6.06;94.52;99536.28;5010578;27;103487;-70
2022/02/23 03:53:03;;;;;;;5.50;1.50;;;;;;;5.71;95.02;99534.19;5008702;27;103738;-69
2022/02/23 03:55:32;;;;;;;8.70;1.43;;;;;;;5.69;96.34;99538.63;5016442;27;104149;-69
2022/02/23 03:58:00;;;;;;;6.10;1.30;;;;;;;5.99;96.00;99540.06;5013678;27;102998;-69
2022/02/23 04:00:28;;;;;;;5.60;1.70;;;;;;;6.16;95.23;99542.00;5016097;27;102791;-69
2022/02/23 04:02:56;;;;;;;5.73;1.60;;;;;;;6.22;94.06;99542.59;5016535;27;104103;-69
2022/02/23 04:05:25;;;;;;;2.90;1.10;;;;;;;6.25;93.95;99547.72;5014389;27;104657;-69
2022/02/23 04:07:53;;;;;;;5.60;1.77;;;;;;;6.21;93.83;99545.28;5015398;27;103195;-69
2022/02/23 04:10:23;;;;;;;5.97;1.30;;;;;;;6.30;94.16;99556.25;5014568;27;102708;-69
2022/02/23 04:12:51;;;;;;;3.40;1.20;;;;;;;6.37;94.05;99555.06;5019500;27;102766;-69
2022/02/23 04:15:21;;;;;;;2.33;1.10;;;;;;;6.47;93.75;99565.19;5013339;27;104011;-69
2022/02/23 04:17:49;;;;;;;5.27;1.40;;;;;;;6.38;93.07;99569.06;5011820;27;103248;-69
2022/02/23 04:20:17;;;;;;;6.60;1.97;;;;;;;6.34;93.74;99580.63;5017734;27;102837;-69
2022/02/23 04:22:48;;;;;;;8.57;2.03;;;;;;;6.35;94.43;99585.78;5016929;27;102667;-69
2022/02/23 04:25:17;;;;;;;2.93;1.30;;;;;;;6.33;93.88;99590.25;5011690;27;103260;-69
2022/02/23 04:27:45;;;;;;;4.80;1.40;;;;;;;6.43;93.84;99588.94;5016483;27;103063;-69
2022/02/23 04:30:13;;;;;;;6.10;1.73;;;;;;;6.49;93.77;99597.47;5010527;27;102834;-69
2022/02/23 04:32:43;;;;;;;4.30;1.63;;;;;;;6.49;93.43;99600.09;5013042;27;102633;-69
2022/02/23 04:35:10;;;;;;;4.63;1.40;;;;;;;6.51;93.03;99596.53;5013889;27;104704;-69
2022/02/23 04:37:38;;;;;;;8.87;2.80;;;;;;;6.40;92.41;99609.19;5013005;27;103736;-69
2022/02/23 04:40:09;;;;;;;7.37;2.33;;;;;;;6.47;93.03;99605.44;5013634;27;102710;-69
2022/02/23 04:42:38;;;;;;;6.83;2.57;;;;;;;6.40;93.24;99610.06;5002781;27;103741;-69
2022/02/23 04:45:06;;;;;;;5.83;2.10;;;;;;;6.35;93.50;99611.16;5014983;27;103241;-69
2022/02/23 04:47:34;;;;;;;5.07;1.83;;;;;;;6.37;93.54;99614.59;5013361;27;103237;-68
2022/02/23 04:50:02;;;;;;;5.47;1.70;;;;;;;6.36;93.19;99624.25;5015203;27;104191;-69
2022/02/23 04:52:30;;;;;;;5.03;2.17;;;;;;;6.34;93.22;99619.97;5010322;27;104200;-70
2022/02/23 04:54:58;;;;;;;7.47;1.80;;;;;;;6.28;93.28;99626.34;5013946;27;103305;-71
2022/02/23 04:57:28;;;;;;;7.17;2.47;;;;;;;6.05;94.00;99626.38;5011459;27;103247;-72
2022/02/23 04:59:57;;;;;;;5.70;2.20;;;;;;;6.04;94.32;99629.06;5009768;27;102772;-67
2022/02/23 05:02:25;;;;;;;7.07;2.13;;;;;;;6.00;93.61;99640.59;5009171;27;102752;-67
2022/02/23 05:04:53;;;;;;;4.63;1.80;;;;;;;5.99;93.78;99634.50;5014203;27;103337;-67
2022/02/23 05:07:23;;;;;;;6.23;2.00;;;;;;;5.96;93.18;99639.84;5024752;27;102973;-67
2022/02/23 05:09:52;;;;;;;5.33;2.10;;;;;;;5.92;92.99;99635.66;5009060;27;102690;-67
2022/02/23 05:12:19;;;;;;;4.50;1.57;;;;;;;5.79;93.51;99639.63;5014076;27;104151;-67
2022/02/23 05:14:49;;;;;;;6.97;1.97;;;;;;;5.79;93.06;99642.25;5015328;27;103218;-67
2022/02/23 05:17:17;;;;;;;3.87;1.53;;;;;;;5.78;93.19;99641.38;5013039;27;103233;-67
2022/02/23 05:19:45;;;;;;;7.30;1.80;;;;;;;5.72;92.84;99641.63;5018541;27;102889;-67
2022/02/23 05:22:13;;;;;;;5.33;1.93;;;;;;;5.74;92.87;99650.28;5018087;27;104365;-68
2022/02/23 05:24:41;;;;;;;9.37;2.40;;;;;;;5.73;92.30;99647.72;5013726;27;104400;-80
2022/02/23 05:27:12;;;;;;;8.00;2.50;;;;;;;5.65;92.47;99649.78;5015032;27;103281;-70
2022/02/23 05:29:40;;;;;;;3.83;1.97;;;;;;;5.70;93.03;99655.69;5013405;27;102721;-70
2022/02/23 05:32:10;;;;;;;9.37;2.70;;;;;;;5.63;92.56;99654.22;5012204;27;104298;-70
2022/02/23 05:34:38;;;;;;;6.13;2.20;;;;;;;5.56;92.11;99660.59;5009300;27;103106;-70
2022/02/23 05:37:07;;;;;;;4.43;1.90;;;;;;;5.50;92.39;99656.44;5004390;27;103374;-69
2022/02/23 05:39:37;;;;;;;5.60;1.53;;;;;;;5.50;92.50;99643.31;5008498;27;102676;-69
2022/02/23 05:42:06;;;;;;;2.77;1.53;;;;;;;5.53;92.43;99652.88;5004841;27;102789;-69
2022/02/23 05:44:34;;;;;;;4.63;2.00;;;;;;;5.37;92.20;99659.56;5007337;27;103248;-69
2022/02/23 05:47:02;;;;;;;7.53;2.30;;;;;;;5.28;92.32;99670.41;5004693;27;104283;-69
2022/02/23 05:49:31;;;;;;;7.07;2.73;;;;;;;5.24;93.02;99670.50;5014623;27;102620;-70
2022/02/23 05:52:00;;;;;;;5.83;2.93;;;;;;;4.98;94.25;99675.78;5008104;27;102848;-70
2022/02/23 05:54:30;;;;;;;5.53;2.20;;;;;;;5.02;94.07;99679.16;5009112;27;104388;-69
2022/02/23 05:56:58;;;;;;;5.23;2.10;;;;;;;5.09;95.38;99684.13;5016636;27;103263;-69
2022/02/23 05:59:26;;;;;;;9.80;2.70;;;;;;;5.05;94.85;99690.38;5010163;27;102655;-69
2022/02/23 06:01:56;;;;;;;7.67;2.70;;;;;;;4.30;100.00;99704.22;5010246;27;104275;-69
2022/02/23 06:04:27;;;;;;;7.80;3.13;;;;;;;4.59;100.00;99706.78;5009036;27;104054;-70
2022/02/23 06:06:56;;;;;;;9.70;3.33;;;;;;;4.81;100.00;99709.53;5012534;27;103297;-69
2022/02/23 06:09:24;;;;;;;9.00;3.27;;;;;;;5.05;100.00;99700.00;5011955;27;103235;-69
2022/02/23 06:11:52;;;;;;;2.60;2.03;;;;;;;5.01;99.35;99712.34;5018944;27;103556;-70
2022/02/23 06:14:20;;;;;;;6.60;2.83;;;;;;;5.11;99.36;99718.97;5017754;27;103183;-70
2022/02/23 06:16:48;;;;;;;5.17;1.83;;;;;;;5.31;98.62;99727.91;5002609;27;104142;-70
2022/02/23 06:19:18;;;;;;;10.53;3.00;;;;;;;5.33;98.50;99724.34;5015535;27;102569;-70
2022/02/23 06:21:46;;;;;;;5.03;2.37;;;;;;;5.33;98.07;99739.22;5002456;27;102973;-70
2022/02/23 06:24:16;;;;;;;6.50;2.83;;;;;;;5.48;97.99;99738.66;5015385;27;104046;-70
2022/02/23 06:26:44;;;;;;;5.50;2.57;;;;;;;5.54;97.31;99736.69;5004775;27;103209;-70
2022/02/23 06:29:12;;;;;;;9.13;2.97;;;;;;;5.54;97.11;99746.31;5011296;27;102751;-71
2022/02/23 06:31:40;;;;;;;7.97;2.97;;;;;;;5.36;97.66;99744.34;5014866;27;104100;-70
2022/02/23 06:34:10;;;;;;;7.23;3.30;;;;;;;5.31;98.50;99754.09;5013000;27;103085;-70
2022/02/23 06:36:38;;;;;;;10.80;3.77;;;;;;;4.95;100.00;99757.06;5002724;27;103308;-70
2022/02/23 06:39:06;;;;;;;9.10;2.93;;;;;;;4.97;100.00;99764.91;5015579;27;102653;-70
2022/02/23 06:41:36;;;;;;;9.53;2.70;;;;;;;5.15;100.00;99762.50;5018070;27;103726;-70
2022/02/23 06:44:05;;;;;;;6.87;2.60;;;;;;;5.31;99.83;99764.59;5022755;27;104037;-69
2022/02/23 06:46:34;;;;;;;6.93;2.53;;;;;;;5.38;100.00;99766.09;5018480;27;103699;-70
2022/02/23 06:49:02;;;;;;;3.47;2.00;;;;;;;5.49;99.84;99780.56;5020466;27;102659;-69
2022/02/23 06:51:30;;;;;;;8.10;3.03;;;;;;;5.49;99.60;99779.69;5020184;27;103545;-70
2022/02/23 06:53:58;;;;;;;6.23;2.63;;;;;;;5.38;100.00;99781.84;5018834;27;104168;-70
2022/02/23 06:56:28;;;;;;;8.63;3.10;;;;;;;5.24;100.00;99788.41;5022227;27;103305;-70
2022/02/23 06:58:58;;;;;;;5.13;2.30;;;;;;;5.53;100.00;99776.91;5022138;27;102653;-65
2022/02/23 07:01:26;;;;;;;4.77;1.80;;;;;;;5.72;100.00;99777.13;5017081;27;104289;-69
2022/02/23 07:03:54;;;;;;;6.47;2.67;;;;;;;5.68;99.59;99781.63;5022356;27;103330;-69
2022/02/23 07:06:24;;;;;;;6.90;3.97;;;;;;;5.76;98.94;99783.97;5018514;27;103214;-72
2022/02/23 07:08:52;;;;;;;7.37;2.90;;;;;;;5.82;98.30;99787.22;5022135;27;102661;-71
2022/02/23 07:11:20;;;;;;;5.60;2.50;;;;;;;6.10;98.47;99789.72;5022557;27;103832;-71
2022/02/23 07:13:48;;;;;;;6.77;2.93;;;;;;;6.35;97.26;99805.41;5020229;27;104174;-71
2022/02/23 07:16:17;;;;;;;6.47;3.23;;;;;;;6.49;95.62;99797.84;5021535;27;103236;-70
2022/02/23 07:18:45;;;;;;;9.80;4.37;;;;;;;6.57;93.83;99800.22;5018157;27;102586;-69
2022/02/23 07:21:13;;;;;;;7.77;3.80;;;;;;;6.86;94.84;99799.91;5017991;27;103793;-71
2022/02/23 07:23:41;;;;;;;8.87;5.07;;;;;;;6.87;92.75;99804.25;5019930;27;104270;-72
2022/02/23 07:26:09;;;;;;;7.37;3.57;;;;;;;7.04;90.79;99807.06;5015655;27;104176;-72
2022/02/23 07:28:38;;;;;;;16.33;4.20;;;;;;;6.92;93.10;99807.53;5017911;27;102694;-72
2022/02/23 07:31:10;;;;;;;14.80;4.67;;;;;;;6.42;95.57;99812.16;5018211;27;103911;-72
2022/02/23 07:33:40;;;;;;;12.87;4.40;;;;;;;6.48;96.10;99821.56;5022084;27;103925;-72
2022/02/23 07:36:09;;;;;;;7.93;3.23;;;;;;;6.95;95.65;99812.69;5019701;27;103200;-72
2022/02/23 07:38:40;;;;;;;8.20;3.47;;;;;;;7.19;92.08;99816.94;5021883;27;104003;-72
2022/02/23 07:41:11;;;;;;;7.27;2.97;;;;;;;8.05;91.07;99821.13;5016566;27;103877;-72
2022/02/23 07:43:59;;;;;;;5.73;2.80;;;;;;;8.79;87.14;99818.59;5012980;27;103570;-72
2022/02/23 07:46:28;;;;;;;10.57;3.17;;;;;;;9.15;83.43;99816.84;5024219;27;103134;-72
2022/02/23 07:49:00;;;;;;;11.57;3.00;;;;;;;9.47;84.75;99826.66;5020261;27;102670;-72
2022/02/23 07:51:29;;;;;;;5.13;2.70;;;;;;;9.83;82.33;99822.13;5022764;27;103771;-70
2022/02/23 07:53:58;;;;;;;6.73;3.10;;;;;;;10.01;81.86;99835.31;5020130;27;103926;-69
2022/02/23 07:56:27;;;;;;;7.50;3.10;;;;;;;10.08;79.53;99837.53;5018019;27;103315;-68
2022/02/23 07:58:55;;;;;;;7.20;2.70;;;;;;;10.47;78.48;99831.94;5019818;27;102678;-70
2022/02/23 08:01:34;;;;;;;4.67;2.63;;;;;;;10.80;77.00;99824.84;5025541;27;102714;-70
2022/02/23 08:04:05;;;;;;;5.53;2.80;;;;;;;10.84;77.23;99830.78;5019872;27;103580;-69
2022/02/23 08:06:33;;;;;;;7.10;2.30;;;;;;;9.82;79.02;99833.63;5010703;27;103232;-69
2022/02/23 08:09:02;;;;;;;6.13;2.93;;;;;;;9.90;79.54;99834.09;5021158;27;103315;-69
2022/02/23 08:11:33;;;;;;;6.57;2.97;;;;;;;10.28;78.55;99839.16;5020408;27;104197;-69
2022/02/23 08:14:03;;;;;;;5.57;3.03;;;;;;;11.18;76.68;99840.34;5020149;27;103309;-69
2022/02/23 08:19:31;;;;;;;9.33;3.33;;;;;;;10.96;74.16;99844.19;5021167;27;103042;-69
2022/02/23 08:22:04;;;;;;;5.07;3.10;;;;;;;11.47;75.84;99839.53;5025311;27;104843;-69
2022/02/23 08:24:34;;;;;;;8.83;3.60;;;;;;;11.07;74.13;99830.38;5016390;27;103233;-70
2022/02/23 08:27:05;;;;;;;7.97;3.70;;;;;;;11.03;74.60;99828.84;5020905;27;103189;-70
2022/02/23 08:29:34;;;;;;;7.13;3.57;;;;;;;11.22;73.45;99833.94;5017482;27;102935;-69
2022/02/23 08:32:08;;;;;;;6.53;3.30;;;;;;;10.54;75.79;99830.69;5017465;27;103702;-69
2022/02/23 08:34:39;;;;;;;6.53;3.43;;;;;;;10.84;75.42;99825.50;5004484;27;104028;-69
2022/02/23 08:37:07;;;;;;;4.67;2.70;;;;;;;11.82;72.55;99817.16;5016356;27;103194;-69
2022/02/23 08:39:36;;;;;;;7.73;3.50;;;;;;;11.57;72.44;99819.50;5020768;27;102769;-69
2022/02/23 08:42:06;;;;;;;9.47;3.50;;;;;;;11.85;70.74;99819.63;5018042;27;102803;-69
2022/02/23 08:44:36;;;;;;;7.33;4.03;;;;;;;11.59;73.21;99823.75;5017558;27;103798;-72
2022/02/23 08:47:06;;;;;;;8.30;4.13;;;;;;;11.93;72.59;99827.13;5014421;27;103567;-69
2022/02/23 08:49:35;;;;;;;6.90;3.50;;;;;;;12.55;70.46;99828.53;5018068;27;102618;-69
2022/02/23 08:52:06;;;;;;;5.93;3.03;;;;;;;12.09;69.92;99828.75;5019516;27;104044;-70
2022/02/23 08:54:34;;;;;;;7.93;3.53;;;;;;;12.27;68.50;99828.56;5022965;27;103833;-70
2022/02/23 08:57:03;;;;;;;6.43;3.30;;;;;;;12.44;67.81;99818.59;5020097;27;103324;-70
2022/02/23 08:59:31;;;;;;;8.50;3.87;;;;;;;12.60;68.42;99823.81;5017105;27;102759;-71
2022/02/23 09:02:00;;;;;;;7.07;3.30;;;;;;;12.83;66.32;99819.72;5020098;27;104036;-72
2022/02/23 09:04:30;;;;;;;7.07;2.80;;;;;;;12.75;67.38;99828.13;5019267;27;103468;-72
2022/02/23 09:07:01;;;;;;;7.73;3.00;;;;;;;13.04;67.50;99823.63;5016170;27;103338;-69
2022/02/23 09:09:31;;;;;;;6.00;3.17;;;;;;;13.28;64.83;99825.56;5017783;27;103889;-69
2022/02/23 09:12:02;;;;;;;4.70;2.77;;;;;;;13.48;64.80;99823.38;5017785;27;103767;-69
2022/02/23 09:14:33;;;;;;;8.87;3.00;;;;;;;13.17;63.85;99819.25;5017452;27;103833;-69
2022/02/23 09:17:05;;;;;;;6.77;2.77;;;;;;;13.55;61.77;99811.41;5020945;27;103345;-71
2022/02/23 09:19:33;;;;;;;4.83;2.40;;;;;;;13.77;61.86;99809.00;5022079;27;102623;-71
2022/02/23 09:22:00;;;;;;;6.47;2.47;;;;;;;13.59;62.87;99813.75;5020268;27;103947;-69
2022/02/23 09:24:28;;;;;;;7.93;2.60;;;;;;;13.89;62.52;99810.84;5020519;27;103640;-69
2022/02/23 09:27:01;;;;;;;7.43;2.60;;;;;;;13.48;62.81;99808.31;5012683;27;104160;-69
2022/02/23 09:29:29;;;;;;;5.73;2.70;;;;;;;13.38;63.64;99812.53;5018230;27;102697;-69
2022/02/23 09:31:57;;;;;;;4.97;2.67;;;;;;;13.17;64.12;99811.28;5018967;27;103936;-69
2022/02/23 09:34:25;;;;;;;6.77;2.63;;;;;;;13.24;65.35;99816.13;5014485;27;103736;-69
2022/02/23 09:36:53;;;;;;;8.17;3.00;;;;;;;13.47;64.27;99827.00;5015093;27;103319;-71
2022/02/23 09:39:21;;;;;;;4.67;2.50;;;;;;;13.82;63.45;99823.69;5016707;27;102728;-71
2022/02/23 09:41:50;;;;;;;4.47;2.33;;;;;;;13.86;60.85;99816.38;5018134;27;102712;-72
2022/02/23 09:44:23;;;;;;;4.97;2.13;;;;;;;13.48;61.58;99818.94;5021775;27;103668;-71
2022/02/23 09:46:51;;;;;;;5.87;2.33;;;;;;;13.33;60.51;99812.81;5018778;27;103466;-71
2022/02/23 09:49:20;;;;;;;4.77;2.00;;;;;;;13.56;60.40;99818.44;5019818;27;102722;-71
2022/02/23 09:51:48;;;;;;;4.43;2.00;;;;;;;13.45;59.07;99812.97;5015860;27;103799;-71
2022/02/23 09:54:16;;;;;;;3.00;1.50;;;;;;;13.86;57.80;99811.06;5010181;27;103513;-71
2022/02/23 09:56:48;;;;;;;4.70;2.07;;;;;;;13.80;61.24;99814.13;5017717;27;103231;-72
2022/02/23 09:59:17;;;;;;;4.73;2.53;;;;;;;13.91;60.53;99814.25;5017734;27;102665;-71
2022/02/23 10:01:47;;;;;;;5.10;2.17;;;;;;;13.59;61.10;99811.09;5021104;27;102806;-71
2022/02/23 10:04:19;;;;;;;5.50;2.23;;;;;;;14.10;60.13;99812.00;5021355;27;104039;-71
2022/02/23 10:06:47;;;;;;;4.70;2.00;;;;;;;13.85;60.56;99804.03;5019708;27;103271;-71
2022/02/23 10:09:15;;;;;;;6.50;2.30;;;;;;;13.67;59.20;99805.28;5020513;27;102587;-70
2022/02/23 10:11:47;;;;;;;3.90;1.67;;;;;;;14.01;57.97;99807.31;5018805;27;104099;-70
2022/02/23 10:14:16;;;;;;;5.43;1.90;;;;;;;13.17;58.08;99813.94;5017725;27;103558;-70
2022/02/23 10:16:47;;;;;;;4.67;2.10;;;;;;;12.53;59.55;99818.03;5022599;27;103328;-70
2022/02/23 10:19:18;;;;;;;4.47;1.67;;;;;;;12.62;60.36;99811.31;5022109;27;102719;-70
2022/02/23 10:21:52;;;;;;;6.00;2.00;;;;;;;12.76;59.86;99798.88;5028375;27;104654;-70
2022/02/23 10:24:32;;;;;;;4.90;1.93;;;;;;;12.65;60.26;99798.72;5028031;27;104234;-71
2022/02/23 10:27:04;;;;;;;5.90;2.23;;;;;;;13.18;60.52;99805.91;5023225;27;104289;-70
2022/02/23 10:29:38;;;;;;;6.07;2.10;;;;;;;12.97;60.21;99801.94;5023055;27;102776;-70
2022/02/23 10:32:12;;;;;;;4.77;1.63;;;;;;;14.02;59.33;99798.41;5025833;27;102836;-70
2022/02/23 10:34:43;;;;;;;3.97;1.47;;;;;;;14.10;55.32;99806.69;5009637;27;103398;-70
2022/02/23 10:37:19;;;;;;;2.43;1.33;;;;;;;14.16;55.78;99805.41;5027407;27;103144;-70
2022/02/23 10:39:50;;;;;;;2.97;1.70;;;;;;;14.31;56.11;99799.91;5024369;27;102628;-70
2022/02/23 10:42:24;;;;;;;5.00;2.20;;;;;;;14.22;54.70;99789.91;5020099;27;103774;-70
2022/02/23 10:44:54;;;;;;;4.67;1.60;;;;;;;14.04;54.62;99792.97;5024170;27;104115;-70
2022/02/23 10:47:26;;;;;;;5.77;1.87;;;;;;;14.41;53.05;99800.13;5019161;27;102802;-70
2022/02/23 10:50:02;;;;;;;6.27;2.60;;;;;;;14.34;54.56;99790.88;5027110;27;102592;-69
2022/02/23 10:52:31;;;;;;;5.50;1.83;;;;;;;13.89;54.41;99793.06;5026016;27;102614;-69
2022/02/23 10:55:14;;;;;;;3.37;1.60;;;;;;;14.42;53.26;99780.56;5023336;27;102782;-68
2022/02/23 10:57:44;;;;;;;4.17;1.80;;;;;;;14.11;54.00;99786.28;5029277;27;102958;-69
2022/02/23 11:00:16;;;;;;;4.77;1.70;;;;;;;14.61;51.48;99785.41;5029673;27;102641;-68
2022/02/23 11:02:46;;;;;;;7.33;1.70;;;;;;;14.89;51.83;99777.13;5026984;27;104084;-69
2022/02/23 11:05:15;;;;;;;3.30;1.27;;;;;;;15.22;50.41;99777.31;5023231;27;103663;-69
2022/02/23 11:07:45;;;;;;;4.87;1.87;;;;;;;15.05;49.61;99772.38;5029182;27;103276;-69
2022/02/23 11:10:14;;;;;;;2.97;1.57;;;;;;;14.93;51.46;99781.28;5023148;27;102658;-69
2022/02/23 11:12:47;;;;;;;5.57;2.03;;;;;;;14.81;51.55;99775.03;5025550;27;104164;-69
2022/02/23 11:15:18;;;;;;;3.30;1.60;;;;;;;14.63;51.38;99763.06;5024977;27;103295;-69
2022/02/23 11:17:49;;;;;;;8.47;1.83;;;;;;;14.54;51.23;99766.38;5023029;27;104186;-69
2022/02/23 11:20:21;;;;;;;4.63;1.60;;;;;;;15.02;51.61;99769.94;5019990;27;102591;-69
2022/02/23 11:22:53;;;;;;;4.07;1.60;;;;;;;15.09;50.92;99765.88;5021522;27;102775;-70
2022/02/23 11:25:25;;;;;;;7.50;2.20;;;;;;;15.31;51.68;99755.31;5022017;27;104083;-70
2022/02/23 11:28:08;;;;;;;4.70;1.73;;;;;;;15.05;51.24;99759.06;5018765;27;103899;-71
2022/02/23 11:30:37;;;;;;;4.07;1.80;;;;;;;14.94;51.87;99756.34;5020158;27;102655;-71
2022/02/23 11:33:06;;;;;;;3.17;1.60;;;;;;;14.73;51.81;99755.28;5023311;27;104004;-71
2022/02/23 11:35:54;;;;;;;4.43;1.63;;;;;;;14.91;51.03;99748.59;5020590;27;103315;-71
2022/02/23 11:38:28;;;;;;;7.67;1.97;;;;;;;15.25;51.03;99750.44;5021343;27;103200;-71
2022/02/23 11:40:59;;;;;;;4.57;1.57;;;;;;;15.40;50.52;99746.66;5019972;27;102909;-71